Terminal Aerodrome Forecast
Issued by NWS

Home | Current Version | Previous Version | Graphics & Text | Print | Product List | Glossary On
Versions: 1 2 3 4 5 6 7 8 9 10 11 12
649
FTUS43 KFGF 151732
TAFBJI
TAF
KBJI 151732Z 1518/1618 23008KT P6SM BKN150
     FM152300 26007KT P6SM BKN080
     FM160100 VRB06KT P6SM SCT140
     FM161600 21009KT P6SM FEW250=

USA.gov is the U.S. government's official web portal to all federal, state and local government web resources and services.